William P Hobby Airport
KHOU : rendu visible

Aérodrome :











RETROUVEZ-NOUS SUR...

 
LOGIN :

S'inscrire | Disclaimer

   EN    FR    IT 

 









Légende :    VFR   VFR Marginal   IFR   IFR Intensif   IFR Très Intensif
Visi : 
Plafond : 
>= 8 km
>= 3000ft
5 à 8 km
1000 à 3000 ft
1500m à 5 km
500 à 1000 ft
800 à 1500m
200 à 500 ft
< 800m
< 200 ft
Symboles :   Orages  Brouillard  Fortes neiges  Fortes précipitations  Vent > 20 kt







- Altitude de l'aérodrome : 46 ft
- Code IATA : HOU


KHOU - William P Hobby

DERNIER METAR :
  • 212253Z 33007KT 10SM FEW250 24/01 A3011 RMK AO2 SLP202 T02440011

METARs EXPIRÉS :
  • 212217Z VRB04KT 10SM FEW250 25/01 A3012 RMK AO2 T02500006
  • 212153Z 31005G15KT 10SM FEW250 24/01 A3012 RMK AO2 SLP206 T02440011
  • 212053Z 00000KT 10SM CLR 24/01 A3014 RMK AO2 SLP212 T02440011 56029

TAF KHOU
Valide du 22 à 00h jusqu'au 23 à 00h UTC


212320Z 2200/2224 33007KT P6SM FEW250
FM220100 VRB03KT P6SM SKC
FM222100 15006KT P6SM FEW250
FIR KZHU / Amérique du Nord



MET'MAP, la Météo Aéronautique d'un coup d'oeil ! - Copyright ORBIFLY Décembre 2007 - Disclaimer

ORBIFLY MET'MAP TEAM :

Programmation & Développement : Alexandra Zaïnal
Conception & Développement : Baudouin d'Aumeries
Co-Programmation & Développement : Marc-Olivier Méhu
Soutien technique & logistique : Manuel Goepfert

Contact : metmap@orbifly.com




SOURCES & CREDITS :

   NOAA       Earth
Advisory